ASN logo
Accident
Last updated: 15 December 2017
Statuts:Préliminaire
Date:samedi 8 avril 2017
Heure:22:17
Type/Sous-type:Silhouette image of generic B738 model; specific model in this crash may look slightly different
Boeing 737-8H6 (WL)
Compagnie:Malaysia Airlines
Immatriculation: 9M-MXX
Numéro de série: 40161/5052
Année de Fabrication: 2014-08-14 (2 years 8 months)
Moteurs: 2 CFMI CFM56-7B26E
Equipage:victimes: 0 / à bord: 6
Passagers:victimes: 0 / à bord: 61
Total:victimes: 0 / à bord: 67
Dégats de l'appareil: Inconnu
Lieu de l'accident:Sibu Airport (SBW) (   Malaysie)
Phase de vol: A l'atterrissage (LDG)
Nature:Transport de Passagers Nat.
Aéroport de départ:Kuala Lumpur International Airport (KUL/WMKK), Malaysie
Aéroport de destination:Sibu Airport (SBW/WBGS), Malaysie
Numéro de vol:MH2718
Détails:
A Malaysia Airlines Boeing 737-800, operating flight MH2718, suffered a landing accident at Sibu Airport, Malaysia. All occupants evacuated. Malaysia Airlines confirmed there were no injuries.
The flight departed Kuala Lumpur International Airport in Malaysia at 20:08 hours LT. Rainshowers were passing the destination of Sibu Airport as the aircraft attempted to land on runway 13.

Photos from the scene show markings in the grass to the right of runway 13, indicative of the aircraft departed in the right side of the runway after touchdown. The aircraft came to rest pointing back to the left in a nose down position with the forward fuselage at the runway edge. The forward escape slides at doors L1 and R1 were deployed to facilitate evacuation.

Runway 13/31 is a 2745 x 45 m asphalt runway. An ILS approach is available for runway 31, runway 13 has VOR/DME approach available.

Sources:
» Malaysia Airlines
» Photos from the scene

METAR Weather report:
13:00 UTC / 21:00 local time:
WBGS 081300Z 22002KT 9999 -RA SCT018 BKN150 27/25 Q1009

14:00 UTC / 22:00 local time:
WBGS 081400Z 32002KT 6000 RA FEW005 SCT018 OVC150 25/24 Q1011

15:00 UTC / 23:00 local time:
WBGS 081500Z 10002KT 7000 RA FEW005 SCT018 OVC150 24/23 Q1011


Photos

Add your photo of this accident or aircraft

Video, social media

Plan
Ce plan montre l'aéroport de départ ainsi que la supposée destination du vol. La ligne fixe reliant les deux aéroports n'est pas le plan de vol exact.
La distance entre Kuala Lumpur International Airport et Sibu Airport est de 1137 km (711 miles).

Les informations ci-dessus ne représentent pas l'opinion de la 'Flight Safety Foundation' ou de 'Aviation Safety Network' sur les causes de l'accident. Ces informations prélimimaires sont basées sur les faits tel qu'ils sont connus à ce jour.
languages: languages

Share